createdAt,value
2023-04-14T00:00:45.897Z,1002.69
2023-04-14T00:01:45.935Z,1002.68
2023-04-14T00:02:45.955Z,1002.71
2023-04-14T00:03:46.183Z,1002.69
2023-04-14T00:04:45.926Z,1002.71
2023-04-14T00:05:45.818Z,1002.70
2023-04-14T00:06:45.809Z,1002.69
2023-04-14T00:07:45.780Z,1002.69
2023-04-14T00:08:45.953Z,1002.69
2023-04-14T00:09:45.789Z,1002.68
2023-04-14T00:10:45.785Z,1002.67
2023-04-14T00:11:45.766Z,1002.67
2023-04-14T00:12:45.740Z,1002.70
2023-04-14T00:13:45.722Z,1002.66
2023-04-14T00:14:45.768Z,1002.68
2023-04-14T00:15:45.709Z,1002.67
2023-04-14T00:16:45.860Z,1002.63
2023-04-14T00:17:45.699Z,1002.65
2023-04-14T00:18:45.670Z,1002.67
2023-04-14T00:19:45.646Z,1002.68
2023-04-14T00:20:45.660Z,1002.72
2023-04-14T00:21:45.630Z,1002.74
2023-04-14T00:22:45.617Z,1002.72
2023-04-14T00:23:45.596Z,1002.77
2023-04-14T00:24:45.591Z,1002.77
2023-04-14T00:25:45.609Z,1002.80
2023-04-14T00:26:45.568Z,1002.78
2023-04-14T00:27:45.559Z,1002.74
2023-04-14T00:28:45.544Z,1002.77
2023-04-14T00:29:45.531Z,1002.77
2023-04-14T00:30:45.551Z,1002.80
2023-04-14T00:31:45.664Z,1002.79
2023-04-14T00:32:45.590Z,1002.77
2023-04-14T00:33:45.485Z,1002.78
2023-04-14T00:34:45.477Z,1002.80
2023-04-14T00:35:45.796Z,1002.81
2023-04-14T00:36:45.456Z,1002.85
2023-04-14T00:37:45.447Z,1002.86
2023-04-14T00:38:45.438Z,1002.88
2023-04-14T00:39:45.418Z,1002.89
2023-04-14T00:40:45.464Z,1002.90
2023-04-14T00:41:45.410Z,1002.92
2023-04-14T00:42:45.464Z,1002.97
2023-04-14T00:43:45.381Z,1002.98
2023-04-14T00:44:45.373Z,1003.00
2023-04-14T00:45:45.366Z,1003.02
2023-04-14T00:46:45.455Z,1002.97
2023-04-14T00:47:45.356Z,1002.98
2023-04-14T00:48:45.319Z,1002.99
2023-04-14T00:49:45.316Z,1003.05
2023-04-14T00:50:45.349Z,1002.99
2023-04-14T00:51:45.297Z,1003.00
2023-04-14T00:52:45.316Z,1003.04
2023-04-14T00:53:45.269Z,1003.02
2023-04-14T00:54:45.253Z,1003.03
2023-04-14T00:55:45.267Z,1003.07
2023-04-14T00:56:45.253Z,1003.10
2023-04-14T00:57:45.260Z,1003.12
2023-04-14T00:58:45.260Z,1003.19
2023-04-14T00:59:45.201Z,1003.23
2023-04-14T01:00:45.203Z,1003.22
2023-04-14T01:01:45.297Z,1003.23
2023-04-14T01:02:45.303Z,1003.23
2023-04-14T01:03:45.381Z,1003.27
2023-04-14T01:04:53.776Z,1003.22
2023-04-14T01:05:46.155Z,1003.26
2023-04-14T01:06:45.139Z,1003.25
2023-04-14T01:07:45.115Z,1003.23
2023-04-14T01:08:45.108Z,1003.20
2023-04-14T01:09:45.089Z,1003.17
2023-04-14T01:10:45.105Z,1003.17
2023-04-14T01:11:45.066Z,1003.17
2023-04-14T01:12:45.056Z,1003.20
2023-04-14T01:13:45.043Z,1003.20
2023-04-14T01:14:45.069Z,1003.18
2023-04-14T01:15:45.088Z,1003.16
2023-04-14T01:16:45.024Z,1003.17
2023-04-14T01:17:45.089Z,1003.21
2023-04-14T01:18:44.997Z,1003.20
2023-04-14T01:19:44.986Z,1003.23
2023-04-14T01:20:45.038Z,1003.25
2023-04-14T01:21:44.955Z,1003.24
2023-04-14T01:22:44.951Z,1003.25
2023-04-14T01:23:44.935Z,1003.25
2023-04-14T01:24:44.944Z,1003.23
2023-04-14T01:25:44.937Z,1003.26
2023-04-14T01:26:44.933Z,1003.24
2023-04-14T01:27:44.896Z,1003.26
2023-04-14T01:28:44.891Z,1003.25
2023-04-14T01:29:44.874Z,1003.25
2023-04-14T01:30:44.879Z,1003.26
2023-04-14T01:31:44.937Z,1003.26
2023-04-14T01:32:44.909Z,1003.25
2023-04-14T01:33:44.890Z,1003.24
2023-04-14T01:34:44.845Z,1003.23
2023-04-14T01:35:44.823Z,1003.30
2023-04-14T01:36:44.811Z,1003.29
2023-04-14T01:37:44.791Z,1003.25
2023-04-14T01:38:44.793Z,1003.30
2023-04-14T01:39:44.764Z,1003.29
2023-04-14T01:40:44.789Z,1003.30
2023-04-14T01:41:44.792Z,1003.34
2023-04-14T01:42:44.808Z,1003.31
2023-04-14T01:43:44.717Z,1003.31
2023-04-14T01:44:44.717Z,1003.26
2023-04-14T01:45:44.939Z,1003.24
2023-04-14T01:46:44.701Z,1003.29
2023-04-14T01:47:44.889Z,1003.29
2023-04-14T01:48:44.670Z,1003.34
2023-04-14T01:49:44.736Z,1003.36
2023-04-14T01:50:44.672Z,1003.34
2023-04-14T01:51:44.651Z,1003.32
2023-04-14T01:52:44.634Z,1003.34
2023-04-14T01:53:44.792Z,1003.32
2023-04-14T01:54:44.607Z,1003.31
2023-04-14T01:55:44.622Z,1003.32
2023-04-14T01:56:44.600Z,1003.28
2023-04-14T01:57:44.589Z,1003.30
2023-04-14T01:58:44.569Z,1003.32
2023-04-14T01:59:44.597Z,1003.33
2023-04-14T02:00:44.581Z,1003.29
2023-04-14T02:01:44.553Z,1003.32
2023-04-14T02:02:44.786Z,1003.37
2023-04-14T02:03:44.586Z,1003.37
2023-04-14T02:04:44.521Z,1003.38
2023-04-14T02:05:44.490Z,1003.36
2023-04-14T02:06:44.521Z,1003.35
2023-04-14T02:07:44.473Z,1003.34
2023-04-14T02:08:44.445Z,1003.35
2023-04-14T02:09:44.449Z,1003.33
2023-04-14T02:10:44.447Z,1003.33
2023-04-14T02:11:44.408Z,1003.33
2023-04-14T02:12:44.422Z,1003.32
2023-04-14T02:13:44.400Z,1003.30
2023-04-14T02:14:44.430Z,1003.32
2023-04-14T02:15:44.379Z,1003.33
2023-04-14T02:16:44.404Z,1003.35
2023-04-14T02:17:44.367Z,1003.34
2023-04-14T02:18:44.329Z,1003.34
2023-04-14T02:19:44.341Z,1003.33
2023-04-14T02:20:44.314Z,1003.31
2023-04-14T02:21:44.322Z,1003.32
2023-04-14T02:22:44.308Z,1003.33
2023-04-14T02:23:44.276Z,1003.32
2023-04-14T02:24:44.303Z,1003.32
2023-04-14T02:25:44.250Z,1003.35
2023-04-14T02:26:44.257Z,1003.33
2023-04-14T02:27:44.227Z,1003.31
2023-04-14T02:28:44.248Z,1003.31
2023-04-14T02:29:44.245Z,1003.31
2023-04-14T02:30:44.211Z,1003.28
2023-04-14T02:31:44.204Z,1003.31
2023-04-14T02:32:44.263Z,1003.28
2023-04-14T02:33:44.224Z,1003.25
2023-04-14T02:34:44.166Z,1003.25
2023-04-14T02:35:44.169Z,1003.22
2023-04-14T02:36:44.139Z,1003.24
2023-04-14T02:37:44.122Z,1003.25
2023-04-14T02:38:44.125Z,1003.23
2023-04-14T02:39:44.140Z,1003.23
2023-04-14T02:40:44.107Z,1003.19
2023-04-14T02:41:44.073Z,1003.24
2023-04-14T02:42:44.075Z,1003.22
2023-04-14T02:43:44.063Z,1003.29
2023-04-14T02:44:44.046Z,1003.26
2023-04-14T02:45:44.074Z,1003.28
2023-04-14T02:46:44.038Z,1003.24
2023-04-14T02:47:44.101Z,1003.26
2023-04-14T02:48:44.022Z,1003.25
2023-04-14T02:49:44.010Z,1003.28
2023-04-14T02:50:44.013Z,1003.24
2023-04-14T02:51:43.969Z,1003.26
2023-04-14T02:52:43.972Z,1003.28
2023-04-14T02:53:43.981Z,1003.31
2023-04-14T02:54:43.986Z,1003.32
2023-04-14T02:55:43.932Z,1003.28
2023-04-14T02:56:43.927Z,1003.34
2023-04-14T02:57:43.916Z,1003.27
2023-04-14T02:58:43.917Z,1003.29
2023-04-14T02:59:43.904Z,1003.30
2023-04-14T03:00:43.881Z,1003.35
2023-04-14T03:01:44.055Z,1003.34
2023-04-14T03:02:44.018Z,1003.30
2023-04-14T03:03:43.892Z,1003.36
2023-04-14T03:04:43.917Z,1003.41
2023-04-14T03:05:43.842Z,1003.38
2023-04-14T03:06:43.816Z,1003.41
2023-04-14T03:07:43.811Z,1003.47
2023-04-14T03:08:43.801Z,1003.44
2023-04-14T03:09:43.814Z,1003.47
2023-04-14T03:10:43.798Z,1003.49
2023-04-14T03:11:43.770Z,1003.45
2023-04-14T03:12:43.796Z,1003.43
2023-04-14T03:13:43.757Z,1003.43
2023-04-14T03:14:43.823Z,1003.45
2023-04-14T03:15:43.720Z,1003.44
2023-04-14T03:16:43.711Z,1003.42
2023-04-14T03:17:43.805Z,1003.45
2023-04-14T03:18:43.690Z,1003.42
2023-04-14T03:19:43.714Z,1003.43
2023-04-14T03:20:43.704Z,1003.45
2023-04-14T03:21:43.654Z,1003.46
2023-04-14T03:22:43.645Z,1003.42
2023-04-14T03:23:43.642Z,1003.44
2023-04-14T03:24:43.625Z,1003.42
2023-04-14T03:25:43.624Z,1003.42
2023-04-14T03:26:43.615Z,1003.43
2023-04-14T03:27:43.596Z,1003.41
2023-04-14T03:28:43.580Z,1003.37
2023-04-14T03:29:43.578Z,1003.41
2023-04-14T03:30:43.564Z,1003.42
2023-04-14T03:31:43.715Z,1003.46
2023-04-14T03:32:43.611Z,1003.45
2023-04-14T03:33:43.565Z,1003.45
2023-04-14T03:34:43.524Z,1003.48
2023-04-14T03:35:43.560Z,1003.47
2023-04-14T03:36:43.495Z,1003.47
2023-04-14T03:37:43.488Z,1003.51
2023-04-14T03:38:43.477Z,1003.54
2023-04-14T03:39:43.475Z,1003.55
2023-04-14T03:40:43.574Z,1003.57
2023-04-14T03:41:43.442Z,1003.58
2023-04-14T03:42:43.422Z,1003.58
2023-04-14T03:43:43.425Z,1003.57
2023-04-14T03:44:43.411Z,1003.56
2023-04-14T03:45:43.500Z,1003.56
2023-04-14T03:46:43.398Z,1003.57
2023-04-14T03:47:43.485Z,1003.59
2023-04-14T03:48:43.396Z,1003.62
2023-04-14T03:49:43.365Z,1003.63
2023-04-14T03:50:43.362Z,1003.59
2023-04-14T03:51:43.354Z,1003.60
2023-04-14T03:52:43.320Z,1003.63
2023-04-14T03:53:43.423Z,1003.62
2023-04-14T03:54:43.321Z,1003.60
2023-04-14T03:55:43.433Z,1003.61
2023-04-14T03:56:43.289Z,1003.60
2023-04-14T03:57:43.277Z,1003.66
2023-04-14T03:58:43.264Z,1003.65
2023-04-14T03:59:43.275Z,1003.72
2023-04-14T04:00:43.244Z,1003.70
2023-04-14T04:01:43.414Z,1003.71
2023-04-14T04:02:43.386Z,1003.73
2023-04-14T04:03:43.483Z,1003.76
2023-04-14T04:04:43.315Z,1003.75
2023-04-14T04:05:43.209Z,1003.74
2023-04-14T04:06:43.185Z,1003.76
2023-04-14T04:07:43.192Z,1003.76
2023-04-14T04:08:43.158Z,1003.77
2023-04-14T04:09:43.146Z,1003.77
2023-04-14T04:10:43.167Z,1003.75
2023-04-14T04:11:43.220Z,1003.78
2023-04-14T04:12:43.113Z,1003.76
2023-04-14T04:13:43.102Z,1003.77
2023-04-14T04:14:43.148Z,1003.78
2023-04-14T04:15:43.094Z,1003.77
2023-04-14T04:16:43.126Z,1003.77
2023-04-14T04:17:43.105Z,1003.75
2023-04-14T04:18:43.090Z,1003.72
2023-04-14T04:19:43.040Z,1003.72
2023-04-14T04:20:43.060Z,1003.75
2023-04-14T04:21:43.016Z,1003.74
2023-04-14T04:22:43.017Z,1003.73
2023-04-14T04:23:42.993Z,1003.71
2023-04-14T04:24:42.992Z,1003.72
2023-04-14T04:25:42.989Z,1003.67
2023-04-14T04:26:42.977Z,1003.67
2023-04-14T04:27:42.947Z,1003.67
2023-04-14T04:28:42.977Z,1003.68
2023-04-14T04:29:42.966Z,1003.71
2023-04-14T04:30:42.929Z,1003.64
2023-04-14T04:31:43.051Z,1003.66
2023-04-14T04:32:42.969Z,1003.63
2023-04-14T04:33:42.979Z,1003.62
2023-04-14T04:34:42.957Z,1003.64
2023-04-14T04:35:42.930Z,1003.65
2023-04-14T04:36:42.965Z,1003.65
2023-04-14T04:37:42.966Z,1003.68
2023-04-14T04:38:43.040Z,1003.72
2023-04-14T04:39:42.843Z,1003.75
2023-04-14T04:40:42.827Z,1003.77
2023-04-14T04:41:42.806Z,1003.78
2023-04-14T04:42:42.847Z,1003.81
2023-04-14T04:43:42.794Z,1003.79
2023-04-14T04:44:42.792Z,1003.84
2023-04-14T04:45:42.797Z,1003.85
2023-04-14T04:46:42.771Z,1003.84
2023-04-14T04:47:42.819Z,1003.85
2023-04-14T04:48:42.740Z,1003.86
2023-04-14T04:49:42.744Z,1003.87
2023-04-14T04:50:42.716Z,1003.84
2023-04-14T04:51:42.707Z,1003.87
2023-04-14T04:52:42.704Z,1003.89
2023-04-14T04:53:42.695Z,1003.88
2023-04-14T04:54:42.672Z,1003.90
2023-04-14T04:55:42.666Z,1003.92
2023-04-14T04:56:42.653Z,1003.91
2023-04-14T04:57:42.640Z,1003.97
2023-04-14T04:58:42.657Z,1003.97
2023-04-14T04:59:42.617Z,1003.97
2023-04-14T05:00:42.606Z,1003.94
2023-04-14T05:01:42.723Z,1003.97
2023-04-14T05:02:42.728Z,1003.97
2023-04-14T05:03:42.615Z,1003.96
2023-04-14T05:04:42.612Z,1003.94
2023-04-14T05:05:42.556Z,1003.95
2023-04-14T05:06:42.569Z,1004.00
2023-04-14T05:07:42.532Z,1004.00
2023-04-14T05:08:42.545Z,1003.99
2023-04-14T05:09:42.559Z,1004.02
2023-04-14T05:10:42.520Z,1004.01
2023-04-14T05:11:42.557Z,1003.98
2023-04-14T05:12:42.513Z,1003.98
2023-04-14T05:13:42.474Z,1003.96
2023-04-14T05:14:42.475Z,1003.98
2023-04-14T05:15:42.492Z,1004.00
2023-04-14T05:16:42.454Z,1003.97
2023-04-14T05:17:42.454Z,1004.00
2023-04-14T05:18:42.441Z,1003.96
2023-04-14T05:19:42.469Z,1003.94
2023-04-14T05:20:42.404Z,1003.93
2023-04-14T05:21:42.385Z,1003.96
2023-04-14T05:22:42.395Z,1003.96
2023-04-14T05:23:42.437Z,1003.96
2023-04-14T05:24:42.384Z,1003.96
2023-04-14T05:25:42.342Z,1003.99
2023-04-14T05:27:42.319Z,1003.99
2023-04-14T05:28:42.313Z,1004.01
2023-04-14T05:29:42.313Z,1003.99
2023-04-14T05:30:42.288Z,1004.00
2023-04-14T05:31:42.349Z,1004.01
2023-04-14T05:32:42.333Z,1004.03
2023-04-14T05:33:42.288Z,1004.03
2023-04-14T05:34:42.285Z,1004.02
2023-04-14T05:35:42.252Z,1004.02
2023-04-14T05:36:42.248Z,1004.05
2023-04-14T05:37:42.297Z,1004.07
2023-04-14T05:38:42.227Z,1004.06
2023-04-14T05:39:42.216Z,1004.01
2023-04-14T05:40:42.187Z,1004.05
2023-04-14T05:41:42.229Z,1004.05
2023-04-14T05:42:42.174Z,1004.03
2023-04-14T05:43:42.173Z,1004.01
2023-04-14T05:44:42.167Z,1004.00
2023-04-14T05:45:42.123Z,1004.01
2023-04-14T05:46:42.179Z,1004.02
2023-04-14T05:47:42.172Z,1004.04
2023-04-14T05:48:42.102Z,1004.01
2023-04-14T05:49:42.104Z,1004.06
2023-04-14T05:50:42.084Z,1004.04
2023-04-14T05:51:42.070Z,1004.07
2023-04-14T05:52:42.057Z,1004.03
2023-04-14T05:53:42.038Z,1004.03
2023-04-14T05:54:43.317Z,1004.06
2023-04-14T05:55:42.051Z,1004.02
2023-04-14T05:56:42.013Z,1003.97
2023-04-14T05:57:42.007Z,1003.96
2023-04-14T05:58:42.010Z,1003.98
2023-04-14T05:59:41.999Z,1003.99
2023-04-14T06:00:42.000Z,1003.99
2023-04-14T06:01:41.991Z,1003.97
2023-04-14T06:02:42.072Z,1003.96
2023-04-14T06:03:42.267Z,1003.96
2023-04-14T06:04:42.038Z,1003.95
2023-04-14T06:05:41.922Z,1003.95
2023-04-14T06:06:41.887Z,1003.95
2023-04-14T06:07:41.892Z,1003.96
2023-04-14T06:08:41.872Z,1003.91
2023-04-14T06:09:41.947Z,1003.97
2023-04-14T06:10:41.859Z,1003.99
2023-04-14T06:11:41.862Z,1003.98
2023-04-14T06:12:41.822Z,1003.93
2023-04-14T06:13:41.846Z,1003.95
2023-04-14T06:14:41.832Z,1003.92
2023-04-14T06:15:41.797Z,1003.94
2023-04-14T06:16:41.853Z,1003.90
2023-04-14T06:17:41.885Z,1003.89
2023-04-14T06:18:41.771Z,1003.83
2023-04-14T06:19:41.778Z,1003.83
2023-04-14T06:20:41.747Z,1003.87
2023-04-14T06:21:41.756Z,1003.84
2023-04-14T06:22:41.725Z,1003.81
2023-04-14T06:23:41.714Z,1003.78
2023-04-14T06:24:41.758Z,1003.79
2023-04-14T06:25:41.709Z,1003.79
2023-04-14T06:26:41.681Z,1003.78
2023-04-14T06:27:41.677Z,1003.80
2023-04-14T06:28:43.710Z,1003.73
2023-04-14T06:29:41.662Z,1003.74
2023-04-14T06:30:41.642Z,1003.75
2023-04-14T06:31:41.740Z,1003.71
2023-04-14T06:32:41.654Z,1003.64
2023-04-14T06:33:41.648Z,1003.66
2023-04-14T06:34:41.630Z,1003.70
2023-04-14T06:35:41.584Z,1003.65
2023-04-14T06:36:41.577Z,1003.66
2023-04-14T06:37:41.557Z,1003.65
2023-04-14T06:38:41.554Z,1003.65
2023-04-14T06:39:41.550Z,1003.64
2023-04-14T06:40:41.540Z,1003.62
2023-04-14T06:41:41.561Z,1003.64
2023-04-14T06:42:41.495Z,1003.60
2023-04-14T06:43:41.500Z,1003.64
2023-04-14T06:44:41.501Z,1003.63
2023-04-14T06:45:41.502Z,1003.57
2023-04-14T06:46:41.557Z,1003.58
2023-04-14T06:47:41.450Z,1003.59
2023-04-14T06:48:41.440Z,1003.59
2023-04-14T06:49:41.437Z,1003.56
2023-04-14T06:50:42.616Z,1003.60
2023-04-14T06:51:41.476Z,1003.61
2023-04-14T06:52:41.442Z,1003.59
2023-04-14T06:53:41.400Z,1003.55
2023-04-14T06:54:41.385Z,1003.52
2023-04-14T06:55:41.377Z,1003.45
2023-04-14T06:56:41.372Z,1003.45
2023-04-14T06:57:41.379Z,1003.44
2023-04-14T06:58:41.371Z,1003.43
2023-04-14T06:59:41.343Z,1003.39
2023-04-14T07:00:41.360Z,1003.42
2023-04-14T07:01:41.348Z,1003.33
2023-04-14T07:02:41.443Z,1003.38
2023-04-14T07:03:41.277Z,1003.36
2023-04-14T07:04:41.328Z,1003.39
2023-04-14T07:05:41.294Z,1003.40
2023-04-14T07:06:41.249Z,1003.35
2023-04-14T07:07:41.226Z,1003.27
2023-04-14T07:08:41.280Z,1003.28
2023-04-14T07:09:41.216Z,1003.27
2023-04-14T07:10:41.204Z,1003.30
2023-04-14T07:11:41.195Z,1003.29
2023-04-14T07:12:41.195Z,1003.28
2023-04-14T07:13:41.208Z,1003.29
2023-04-14T07:14:41.155Z,1003.28
2023-04-14T07:15:41.189Z,1003.26
2023-04-14T07:16:41.225Z,1003.31
2023-04-14T07:17:41.155Z,1003.33
2023-04-14T07:18:41.122Z,1003.32
2023-04-14T07:19:41.099Z,1003.33
2023-04-14T07:20:41.080Z,1003.32
2023-04-14T07:21:41.141Z,1003.26
2023-04-14T07:22:41.085Z,1003.28
2023-04-14T07:23:41.068Z,1003.28
2023-04-14T07:24:41.137Z,1003.26
2023-04-14T07:25:41.032Z,1003.31
2023-04-14T07:26:41.090Z,1003.23
2023-04-14T07:27:47.291Z,1003.27
2023-04-14T07:28:42.003Z,1003.22
2023-04-14T07:29:40.990Z,1003.21
2023-04-14T07:30:40.959Z,1003.19
2023-04-14T07:31:40.993Z,1003.22
2023-04-14T07:32:40.969Z,1003.18
2023-04-14T07:33:40.954Z,1003.16
2023-04-14T07:34:40.937Z,1003.14
2023-04-14T07:35:51.019Z,1003.10
2023-04-14T07:36:41.959Z,1003.12
2023-04-14T07:37:40.916Z,1003.10
2023-04-14T07:38:40.930Z,1003.06
2023-04-14T07:39:40.876Z,1003.03
2023-04-14T07:40:40.894Z,1003.01
2023-04-14T07:41:40.853Z,1003.01
2023-04-14T07:42:40.838Z,1003.01
2023-04-14T07:43:40.850Z,1003.03
2023-04-14T07:44:40.818Z,1003.01
2023-04-14T07:45:40.838Z,1003.04
2023-04-14T07:46:40.935Z,1003.04
2023-04-14T07:47:40.885Z,1003.01
2023-04-14T07:48:40.789Z,1003.05
2023-04-14T07:49:40.759Z,1003.04
2023-04-14T07:50:40.833Z,1002.99
2023-04-14T07:51:40.743Z,1003.03
2023-04-14T07:52:40.725Z,1003.04
2023-04-14T07:53:40.800Z,1003.04
2023-04-14T07:54:40.703Z,1003.06
2023-04-14T07:55:40.699Z,1003.06
2023-04-14T07:56:40.686Z,1003.06
2023-04-14T07:57:40.685Z,1003.08
2023-04-14T07:58:40.660Z,1003.07
2023-04-14T07:59:40.707Z,1003.08
2023-04-14T08:00:40.631Z,1003.08
2023-04-14T08:01:40.649Z,1003.13
2023-04-14T08:02:40.890Z,1003.10
2023-04-14T08:03:42.748Z,1003.10
2023-04-14T08:04:40.627Z,1003.13
2023-04-14T08:05:40.658Z,1003.10
2023-04-14T08:06:40.565Z,1003.06
2023-04-14T08:07:40.572Z,1003.05
2023-04-14T08:08:40.557Z,1003.01
2023-04-14T08:09:40.557Z,1003.05
2023-04-14T08:10:40.532Z,1003.07
2023-04-14T08:11:40.523Z,1003.02
2023-04-14T08:12:40.511Z,1003.02
2023-04-14T08:13:40.542Z,1002.99
2023-04-14T08:14:40.531Z,1003.00
2023-04-14T08:15:40.474Z,1002.96
2023-04-14T08:16:40.582Z,1002.95
2023-04-14T08:17:40.476Z,1002.97
2023-04-14T08:18:40.477Z,1002.90
2023-04-14T08:19:40.439Z,1002.95
2023-04-14T08:20:40.426Z,1002.97
2023-04-14T08:21:40.401Z,1002.95
2023-04-14T08:22:40.425Z,1002.99
2023-04-14T08:23:40.403Z,1002.99
2023-04-14T08:24:40.498Z,1002.94
2023-04-14T08:25:40.360Z,1002.97
2023-04-14T08:26:40.357Z,1002.93
2023-04-14T08:27:40.339Z,1002.90
2023-04-14T08:28:40.325Z,1002.90
2023-04-14T08:29:40.323Z,1002.89
2023-04-14T08:30:40.368Z,1002.88
2023-04-14T08:31:40.350Z,1002.87
2023-04-14T08:32:40.332Z,1002.82
2023-04-14T08:33:40.280Z,1002.84
2023-04-14T08:34:40.303Z,1002.81
2023-04-14T08:35:42.662Z,1002.82
2023-04-14T08:36:40.238Z,1002.79
2023-04-14T08:37:40.229Z,1002.85
2023-04-14T08:38:40.218Z,1002.82
2023-04-14T08:39:40.289Z,1002.77
2023-04-14T08:40:40.228Z,1002.79
2023-04-14T08:41:40.197Z,1002.76
2023-04-14T08:42:40.187Z,1002.79
2023-04-14T08:43:40.201Z,1002.79
2023-04-14T08:44:40.183Z,1002.78
2023-04-14T08:45:40.170Z,1002.77
2023-04-14T08:46:40.309Z,1002.76
2023-04-14T08:47:40.171Z,1002.75
2023-04-14T08:48:40.150Z,1002.72
2023-04-14T08:49:40.117Z,1002.74
2023-04-14T08:50:40.148Z,1002.66
2023-04-14T08:51:40.149Z,1002.66
2023-04-14T08:52:40.070Z,1002.71
2023-04-14T08:53:40.096Z,1002.72
2023-04-14T08:54:40.054Z,1002.67
2023-04-14T08:55:40.056Z,1002.67
2023-04-14T08:56:40.083Z,1002.66
2023-04-14T08:57:40.017Z,1002.60
2023-04-14T08:58:40.059Z,1002.62
2023-04-14T08:59:40.394Z,1002.63
2023-04-14T09:00:40.523Z,1002.57
2023-04-14T09:01:40.176Z,1002.58
2023-04-14T09:02:40.170Z,1002.53
2023-04-14T09:03:40.235Z,1002.52
2023-04-14T09:04:40.041Z,1002.52
2023-04-14T09:05:39.942Z,1002.53
2023-04-14T09:06:40.042Z,1002.54
2023-04-14T09:07:39.940Z,1002.55
2023-04-14T09:08:39.936Z,1002.50
2023-04-14T09:09:39.916Z,1002.52
2023-04-14T09:10:39.927Z,1002.51
2023-04-14T09:11:39.878Z,1002.54
2023-04-14T09:12:41.865Z,1002.48
2023-04-14T09:13:39.862Z,1002.52
2023-04-14T09:14:39.866Z,1002.47
2023-04-14T09:15:39.822Z,1002.46
2023-04-14T09:16:39.845Z,1002.44
2023-04-14T09:17:39.957Z,1002.46
2023-04-14T09:18:39.877Z,1002.42
2023-04-14T09:20:38.700Z,1002.43
2023-04-14T09:20:41.970Z,1002.44
2023-04-14T09:21:53.368Z,1002.42
2023-04-14T09:22:40.812Z,1002.45
2023-04-14T09:23:39.818Z,1002.45
2023-04-14T09:24:39.908Z,1002.46
2023-04-14T09:25:39.768Z,1002.43
2023-04-14T09:26:39.713Z,1002.41
2023-04-14T09:27:39.695Z,1002.41
2023-04-14T09:28:39.690Z,1002.40
2023-04-14T09:29:39.702Z,1002.41
2023-04-14T09:30:39.732Z,1002.40
2023-04-14T09:31:39.779Z,1002.40
2023-04-14T09:32:39.735Z,1002.37
2023-04-14T09:33:39.718Z,1002.39
2023-04-14T09:34:39.658Z,1002.34
2023-04-14T09:35:39.617Z,1002.32
2023-04-14T09:36:39.626Z,1002.34
2023-04-14T09:37:39.594Z,1002.31
2023-04-14T09:38:39.605Z,1002.32
2023-04-14T09:39:39.617Z,1002.31
2023-04-14T09:40:39.552Z,1002.30
2023-04-14T09:41:39.561Z,1002.26
2023-04-14T09:42:39.612Z,1002.31
2023-04-14T09:43:39.535Z,1002.31
2023-04-14T09:44:39.571Z,1002.35
2023-04-14T09:45:39.726Z,1002.33
2023-04-14T09:46:39.634Z,1002.34
2023-04-14T09:47:39.569Z,1002.31
2023-04-14T09:48:39.563Z,1002.23
2023-04-14T09:49:39.476Z,1002.22
2023-04-14T09:50:39.447Z,1002.24
2023-04-14T09:51:39.575Z,1002.25
2023-04-14T09:52:39.432Z,1002.20
2023-04-14T09:53:39.418Z,1002.22
2023-04-14T09:54:39.418Z,1002.14
2023-04-14T09:55:39.402Z,1002.22
2023-04-14T09:56:39.388Z,1002.19
2023-04-14T09:57:39.376Z,1002.16
2023-04-14T09:58:39.379Z,1002.14
2023-04-14T09:59:39.380Z,1002.18
2023-04-14T10:00:39.358Z,1002.08
2023-04-14T10:01:39.419Z,1002.10
2023-04-14T10:02:39.476Z,1002.09
2023-04-14T10:03:39.398Z,1002.05
2023-04-14T10:04:39.391Z,1002.02
2023-04-14T10:05:39.313Z,1001.95
2023-04-14T10:06:39.280Z,1001.91
2023-04-14T10:07:39.335Z,1001.92
2023-04-14T10:08:39.399Z,1001.87
2023-04-14T10:09:39.302Z,1001.88
2023-04-14T10:10:39.238Z,1001.87
2023-04-14T10:11:39.263Z,1001.87
2023-04-14T10:12:39.220Z,1001.86
2023-04-14T10:13:39.232Z,1001.89
2023-04-14T10:14:39.217Z,1001.83
2023-04-14T10:15:39.197Z,1001.81
2023-04-14T10:16:39.236Z,1001.79
2023-04-14T10:17:39.197Z,1001.74
2023-04-14T10:18:39.185Z,1001.73
2023-04-14T10:19:39.171Z,1001.73
2023-04-14T10:20:39.155Z,1001.54
2023-04-14T10:21:39.136Z,1001.69
2023-04-14T10:22:40.964Z,1001.63
2023-04-14T10:23:39.121Z,1001.57
2023-04-14T10:24:39.135Z,1001.57
2023-04-14T10:25:39.094Z,1001.56
2023-04-14T10:26:39.092Z,1001.55
2023-04-14T10:27:39.084Z,1001.55
2023-04-14T10:28:39.088Z,1001.54
2023-04-14T10:29:39.181Z,1001.51
2023-04-14T10:30:39.100Z,1001.47
2023-04-14T10:31:39.115Z,1001.51
2023-04-14T10:32:39.037Z,1001.47
2023-04-14T10:33:39.025Z,1001.47
2023-04-14T10:34:41.230Z,1001.41
2023-04-14T10:35:38.992Z,1001.46
2023-04-14T10:36:38.976Z,1001.46
2023-04-14T10:37:38.963Z,1001.43
2023-04-14T10:38:39.081Z,1001.46
2023-04-14T10:39:38.943Z,1001.39
2023-04-14T10:40:38.932Z,1001.36
2023-04-14T10:41:38.951Z,1001.33
2023-04-14T10:42:38.922Z,1001.36
2023-04-14T10:43:38.918Z,1001.33
2023-04-14T10:44:38.923Z,1001.30
2023-04-14T10:45:38.886Z,1001.28
2023-04-14T10:46:38.899Z,1001.23
2023-04-14T10:47:38.934Z,1001.28
2023-04-14T10:48:38.871Z,1001.29
2023-04-14T10:49:38.891Z,1001.03
2023-04-14T10:50:38.831Z,1001.23
2023-04-14T10:51:38.832Z,1001.22
2023-04-14T10:52:38.860Z,1001.20
2023-04-14T10:53:38.833Z,1001.21
2023-04-14T10:54:38.872Z,1001.16
2023-04-14T10:55:50.471Z,1001.18
2023-04-14T10:56:40.528Z,1001.18
2023-04-14T10:57:38.848Z,1001.14
2023-04-14T10:58:38.778Z,1001.12
2023-04-14T10:59:38.761Z,1001.14
2023-04-14T11:00:38.837Z,1001.03
2023-04-14T11:01:38.858Z,1001.05
2023-04-14T11:02:38.801Z,1001.12
2023-04-14T11:03:39.123Z,1001.09
2023-04-14T11:04:38.712Z,1001.09
2023-04-14T11:05:38.725Z,1001.05
2023-04-14T11:06:38.700Z,1001.09
2023-04-14T11:07:38.680Z,1001.10
2023-04-14T11:08:38.663Z,1000.71
2023-04-14T11:09:38.713Z,1000.84
2023-04-14T11:10:38.637Z,1000.85
2023-04-14T11:11:38.623Z,1001.18
2023-04-14T11:12:38.614Z,1000.80
2023-04-14T11:13:38.631Z,1000.86
2023-04-14T11:14:38.607Z,1000.75
2023-04-14T11:15:38.587Z,1000.81
2023-04-14T11:16:40.339Z,1001.13
2023-04-14T11:17:39.698Z,1001.11
2023-04-14T11:18:38.595Z,1001.06
2023-04-14T11:19:38.576Z,1000.97
2023-04-14T11:20:38.523Z,1000.97
2023-04-14T11:21:38.538Z,1000.92
2023-04-14T11:22:38.529Z,1000.91
2023-04-14T11:23:38.748Z,1000.86
2023-04-14T11:24:38.489Z,1000.93
2023-04-14T11:25:38.481Z,1000.71
2023-04-14T11:26:38.468Z,1000.79
2023-04-14T11:27:38.519Z,1000.84
2023-04-14T11:28:38.456Z,1000.82
2023-04-14T11:29:38.507Z,1000.76
2023-04-14T11:30:38.453Z,1000.71
2023-04-14T11:31:38.481Z,1000.55
2023-04-14T11:32:38.462Z,1000.81
2023-04-14T11:33:38.390Z,1000.81
2023-04-14T11:34:38.395Z,1000.38
2023-04-14T11:35:38.470Z,1000.56
2023-04-14T11:36:38.361Z,1000.57
2023-04-14T11:37:38.363Z,1000.62
2023-04-14T11:38:38.337Z,1000.92
2023-04-14T11:39:38.374Z,1000.86
2023-04-14T11:40:38.337Z,1000.78
2023-04-14T11:41:38.328Z,1000.83
2023-04-14T11:42:38.320Z,1000.52
2023-04-14T11:43:38.364Z,1000.46
2023-04-14T11:44:38.375Z,1000.54
2023-04-14T11:45:38.393Z,1000.58
2023-04-14T11:46:38.342Z,1000.57
2023-04-14T11:47:38.316Z,1000.59
2023-04-14T11:48:38.284Z,1000.60
2023-04-14T11:49:38.313Z,1000.62
2023-04-14T11:50:38.224Z,1000.46
2023-04-14T11:51:38.245Z,1000.44
2023-04-14T11:52:38.220Z,1000.41
2023-04-14T11:53:38.200Z,1000.43
2023-04-14T11:54:38.340Z,1000.77
2023-04-14T11:55:38.187Z,1000.71
2023-04-14T11:56:38.161Z,1000.44
2023-04-14T11:57:38.164Z,1000.50
2023-04-14T11:58:38.226Z,1000.47
2023-04-14T11:59:38.193Z,1000.43
2023-04-14T12:00:38.115Z,1000.44
2023-04-14T12:01:38.093Z,1000.66
2023-04-14T12:02:38.295Z,1000.64
2023-04-14T12:03:38.235Z,1000.64
2023-04-14T12:04:38.271Z,1000.66
2023-04-14T12:05:38.180Z,1000.65
2023-04-14T12:06:38.048Z,1000.62